Terminal Aerodrome Forecast
Issued by NWS Quad Cities IA IL

Home | Current Version | Previous Version | Text Only | Print | Product List | Glossary On
Versions: 1 2 3 4 5 6 7 8 9 10 11 12 13 14 15 16 17
000
FTUS43 KDVN 140900 AAA
TAFDBQ
TAF AMD
KDBQ 140928Z 1409/1506 01024G35KT 6SM -SN BR OVC010
      TEMPO 1409/1413 3SM -SN
     FM141300 34022G28KT P6SM VCSH OVC015
     FM141500 34022G30KT P6SM OVC025
     FM141800 34022G30KT P6SM BKN050
     FM150300 36005KT P6SM SCT250=

USA.gov is the U.S. government's official web portal to all federal, state and local government web resources and services.